Terminal Aerodrome Forecast
Issued by NWS

Home | Current Version | Previous Version | Graphics & Text | Print | Product List | Glossary On
Versions: 1 2 3 4 5 6 7 8 9 10 11 12 13 14 15 16 17 18 19 20 21 22 23 24 25
000
FTUS43 KABR 081731
TAFPIR
TAF
KPIR 081731Z 0818/0918 31014G24KT P6SM BKN070
     FM082100 31011KT P6SM BKN060
     FM090000 31008KT P6SM SCT150
     FM090200 33004KT P6SM SCT120
     FM090900 06004KT P6SM BKN100
     FM091700 07008KT P6SM OVC030=

USA.gov is the U.S. government's official web portal to all federal, state and local government web resources and services.